createdAt,value
2023-05-07T00:04:20.696Z,13.97
2023-05-07T00:09:21.988Z,13.94
2023-05-07T00:14:23.277Z,13.90
2023-05-07T00:19:24.485Z,13.90
2023-05-07T00:24:25.628Z,13.93
2023-05-07T00:29:26.827Z,13.93
2023-05-07T00:34:27.998Z,13.68
2023-05-07T00:39:29.226Z,13.91
2023-05-07T00:44:30.666Z,13.87
2023-05-07T00:49:31.873Z,13.88
2023-05-07T00:54:33.015Z,13.91
2023-05-07T00:59:34.334Z,13.91
2023-05-07T01:04:36.151Z,13.89
2023-05-07T01:09:37.741Z,13.90
2023-05-07T01:14:38.896Z,13.89
2023-05-07T01:19:40.129Z,13.90
2023-05-07T01:24:41.288Z,13.90
2023-05-07T01:29:42.433Z,13.88
2023-05-07T01:34:43.598Z,13.83
2023-05-07T01:39:44.738Z,13.82
2023-05-07T01:44:45.897Z,13.80
2023-05-07T01:49:47.094Z,13.81
2023-05-07T01:54:48.227Z,13.80
2023-05-07T01:59:50.448Z,13.78
2023-05-07T02:04:51.622Z,13.77
2023-05-07T02:09:53.315Z,13.75
2023-05-07T02:14:54.513Z,13.72
2023-05-07T02:19:55.724Z,13.70
2023-05-07T02:24:56.877Z,13.69
2023-05-07T02:29:58.122Z,13.62
2023-05-07T02:34:59.335Z,13.49
2023-05-07T02:40:00.516Z,13.34
2023-05-07T02:45:01.684Z,13.18
2023-05-07T02:50:02.929Z,13.03
2023-05-07T02:55:04.098Z,12.94
2023-05-07T03:00:05.397Z,12.87
2023-05-07T03:05:06.560Z,12.83
2023-05-07T03:10:07.840Z,12.85
2023-05-07T03:15:09.088Z,12.82
2023-05-07T03:20:11.262Z,12.74
2023-05-07T03:25:12.759Z,12.68
2023-05-07T03:30:13.980Z,12.64
2023-05-07T03:35:15.228Z,12.63
2023-05-07T03:40:16.598Z,12.66
2023-05-07T03:45:17.817Z,12.64
2023-05-07T03:50:19.001Z,12.61
2023-05-07T03:55:20.312Z,12.59
2023-05-07T04:00:22.003Z,12.57
2023-05-07T04:05:23.240Z,12.56
2023-05-07T04:10:24.425Z,12.50
2023-05-07T04:15:25.850Z,12.48
2023-05-07T04:20:27.093Z,12.54
2023-05-07T04:25:28.588Z,12.58
2023-05-07T04:30:29.786Z,12.70
2023-05-07T04:35:31.003Z,12.79
2023-05-07T04:40:32.251Z,12.86
2023-05-07T04:45:33.454Z,12.97
2023-05-07T04:50:34.756Z,13.06
2023-05-07T04:55:35.994Z,13.19
2023-05-07T05:00:37.164Z,13.33
2023-05-07T05:05:38.392Z,13.42
2023-05-07T05:10:39.748Z,13.53
2023-05-07T05:15:41.003Z,13.65
2023-05-07T05:20:42.169Z,13.75
2023-05-07T05:25:43.405Z,13.87
2023-05-07T05:30:44.636Z,13.96
2023-05-07T05:35:45.926Z,14.05
2023-05-07T05:40:47.062Z,14.15
2023-05-07T05:45:48.283Z,14.31
2023-05-07T05:50:49.430Z,14.40
2023-05-07T05:55:51.801Z,14.50
2023-05-07T06:00:54.232Z,14.54
2023-05-07T06:05:55.503Z,14.63
2023-05-07T06:10:56.796Z,14.71
2023-05-07T06:15:57.935Z,14.87
2023-05-07T06:20:59.122Z,15.01
2023-05-07T06:26:00.400Z,15.20
2023-05-07T06:31:01.838Z,15.43
2023-05-07T06:36:03.010Z,15.60
2023-05-07T06:41:04.203Z,15.69
2023-05-07T06:46:06.040Z,15.89
2023-05-07T06:51:07.266Z,16.13
2023-05-07T06:56:08.541Z,16.37
2023-05-07T07:01:09.720Z,16.53
2023-05-07T07:06:10.902Z,16.61
2023-05-07T07:11:12.124Z,16.70
2023-05-07T07:16:13.603Z,16.79
2023-05-07T07:21:14.993Z,16.92
2023-05-07T07:26:16.141Z,17.17
2023-05-07T07:31:17.410Z,17.40
2023-05-07T07:36:18.669Z,17.63
2023-05-07T07:41:19.877Z,17.75
2023-05-07T07:46:21.098Z,17.91
2023-05-07T07:51:22.288Z,18.12
2023-05-07T07:56:23.469Z,18.36
2023-05-07T08:01:24.713Z,18.72
2023-05-07T08:06:29.163Z,19.15
2023-05-07T08:11:30.414Z,19.50
2023-05-07T08:16:31.628Z,19.74
2023-05-07T08:21:34.563Z,19.85
2023-05-07T08:26:36.915Z,20.08
2023-05-07T08:31:39.670Z,20.39
2023-05-07T08:36:42.748Z,20.47
2023-05-07T08:41:43.950Z,20.71
2023-05-07T08:46:47.725Z,21.28
2023-05-07T08:51:49.044Z,21.56
2023-05-07T08:56:51.121Z,21.94
2023-05-07T09:01:52.469Z,22.05
2023-05-07T09:06:53.695Z,21.93
2023-05-07T09:11:54.907Z,22.04
2023-05-07T09:16:56.116Z,21.93
2023-05-07T09:21:57.279Z,22.39
2023-05-07T09:26:58.554Z,22.96
2023-05-07T09:31:59.819Z,23.07
2023-05-07T09:37:01.096Z,23.70
2023-05-07T09:42:02.299Z,23.88
2023-05-07T09:47:03.468Z,23.69
2023-05-07T09:52:04.809Z,24.10
2023-05-07T09:57:06.133Z,24.49
2023-05-07T10:02:07.390Z,24.83
2023-05-07T10:07:08.656Z,25.00
2023-05-07T10:12:09.872Z,25.80
2023-05-07T10:17:12.845Z,27.03
2023-05-07T10:22:14.058Z,27.59
2023-05-07T10:27:15.409Z,27.26
2023-05-07T10:32:16.660Z,26.92
2023-05-07T10:37:17.830Z,26.83
2023-05-07T10:42:19.073Z,27.33
2023-05-07T10:47:20.367Z,26.94
2023-05-07T10:52:21.655Z,27.19
2023-05-07T10:57:23.052Z,26.64
2023-05-07T11:02:24.285Z,26.28
2023-05-07T11:07:25.601Z,26.05
2023-05-07T11:12:26.805Z,26.70
2023-05-07T11:17:31.026Z,27.21
2023-05-07T11:22:32.554Z,26.67
2023-05-07T11:27:33.753Z,26.66
2023-05-07T11:32:34.968Z,26.81
2023-05-07T11:37:36.341Z,26.70
2023-05-07T11:42:38.523Z,25.84
2023-05-07T11:47:39.850Z,25.78
2023-05-07T11:52:41.136Z,25.93
2023-05-07T11:57:42.923Z,26.10
2023-05-07T12:02:44.227Z,26.10
2023-05-07T12:07:45.435Z,26.19
2023-05-07T12:12:46.621Z,25.94
2023-05-07T12:17:47.907Z,25.84
2023-05-07T12:22:49.183Z,25.86
2023-05-07T12:27:50.662Z,25.88
2023-05-07T12:32:51.954Z,25.91
2023-05-07T12:37:53.160Z,25.83
2023-05-07T12:42:55.753Z,25.46
2023-05-07T12:47:57.152Z,25.11
2023-05-07T12:52:58.447Z,24.75
2023-05-07T12:57:59.650Z,24.52
2023-05-07T13:03:00.975Z,24.26
2023-05-07T13:08:02.224Z,24.38
2023-05-07T13:13:03.506Z,24.22
2023-05-07T13:18:04.745Z,24.22
2023-05-07T13:23:06.015Z,24.04
2023-05-07T13:28:11.144Z,23.90
2023-05-07T13:33:12.585Z,23.70
2023-05-07T13:38:13.878Z,23.55
2023-05-07T13:43:15.454Z,23.32
2023-05-07T13:48:16.709Z,23.19
2023-05-07T13:53:19.142Z,23.37
2023-05-07T13:58:20.389Z,23.53
2023-05-07T14:03:21.699Z,23.06
2023-05-07T14:08:22.922Z,22.59
2023-05-07T14:13:24.259Z,22.08
2023-05-07T14:18:25.627Z,22.19
2023-05-07T14:23:27.550Z,22.06
2023-05-07T14:28:28.868Z,21.98
2023-05-07T14:33:30.065Z,21.94
2023-05-07T14:38:33.649Z,21.74
2023-05-07T14:43:34.861Z,21.44
2023-05-07T14:48:36.245Z,21.30
2023-05-07T14:53:37.421Z,21.24
2023-05-07T14:58:38.972Z,20.59
2023-05-07T15:03:40.383Z,20.46
2023-05-07T15:08:41.619Z,19.73
2023-05-07T15:13:42.763Z,19.31
2023-05-07T15:18:43.917Z,18.79
2023-05-07T15:23:45.477Z,18.66
2023-05-07T15:28:46.865Z,18.61
2023-05-07T15:33:48.502Z,18.57
2023-05-07T15:38:49.629Z,18.45
2023-05-07T15:43:50.846Z,18.58
2023-05-07T15:48:52.141Z,18.57
2023-05-07T15:53:53.858Z,18.72
2023-05-07T15:58:55.006Z,18.80
2023-05-07T16:03:56.256Z,19.09
2023-05-07T16:08:57.474Z,19.28
2023-05-07T16:14:00.858Z,19.23
2023-05-07T16:19:02.168Z,19.23
2023-05-07T16:24:03.412Z,19.40
2023-05-07T16:29:04.610Z,19.39
2023-05-07T16:34:05.826Z,19.48
2023-05-07T16:39:06.958Z,19.48
2023-05-07T16:44:09.382Z,19.19
2023-05-07T16:49:11.263Z,19.06
2023-05-07T16:54:12.702Z,18.82
2023-05-07T16:59:13.923Z,18.82
2023-05-07T17:04:15.161Z,18.97
2023-05-07T17:09:16.380Z,18.82
2023-05-07T17:14:17.554Z,18.79
2023-05-07T17:19:18.734Z,18.75
2023-05-07T17:24:19.864Z,18.78
2023-05-07T17:29:21.153Z,18.66
2023-05-07T17:34:22.353Z,18.60
2023-05-07T17:39:23.674Z,18.54
2023-05-07T17:44:24.912Z,18.41
2023-05-07T17:49:26.089Z,18.43
2023-05-07T17:54:27.890Z,18.32
2023-05-07T17:59:29.311Z,18.32
2023-05-07T18:04:30.558Z,18.28
2023-05-07T18:09:31.794Z,18.17
2023-05-07T18:14:33.009Z,18.12
2023-05-07T18:19:34.169Z,18.06
2023-05-07T18:24:35.458Z,17.99
2023-05-07T18:29:36.606Z,17.92
2023-05-07T18:34:37.761Z,17.83
2023-05-07T18:39:38.937Z,17.77
2023-05-07T18:44:40.270Z,17.69
2023-05-07T18:49:41.482Z,17.65
2023-05-07T18:54:43.280Z,17.57
2023-05-07T18:59:44.521Z,17.48
2023-05-07T19:04:45.724Z,17.41
2023-05-07T19:10:01.172Z,17.33
2023-05-07T19:15:05.860Z,17.23
2023-05-07T19:25:13.831Z,17.11
2023-05-07T19:30:15.431Z,17.04
2023-05-07T19:35:16.632Z,16.97
2023-05-07T19:40:17.944Z,16.92
2023-05-07T19:45:19.112Z,16.85
2023-05-07T19:50:20.322Z,16.77
2023-05-07T19:55:21.579Z,16.66
2023-05-07T20:00:26.391Z,16.65
2023-05-07T20:05:28.162Z,16.66
2023-05-07T20:10:29.401Z,16.59
2023-05-07T20:15:30.658Z,16.54
2023-05-07T20:20:31.908Z,16.47
2023-05-07T20:25:33.090Z,16.43
2023-05-07T20:30:34.358Z,16.38
2023-05-07T20:35:35.580Z,16.33
2023-05-07T20:40:37.775Z,16.29
2023-05-07T20:45:39.450Z,16.27
2023-05-07T20:50:41.055Z,16.21
2023-05-07T20:55:42.257Z,16.18
2023-05-07T21:00:43.459Z,16.13
2023-05-07T21:05:44.751Z,16.08
2023-05-07T21:10:46.030Z,16.07
2023-05-07T21:15:47.419Z,16.06
2023-05-07T21:20:48.646Z,16.04
2023-05-07T21:25:51.654Z,16.00
2023-05-07T21:30:52.884Z,15.95
2023-05-07T21:35:54.289Z,15.91
2023-05-07T21:40:55.640Z,15.88
2023-05-07T21:45:57.803Z,15.86
2023-05-07T21:50:59.017Z,15.82
2023-05-07T21:56:00.306Z,15.79
2023-05-07T22:01:01.836Z,15.74
2023-05-07T22:06:03.090Z,15.68
2023-05-07T22:11:04.313Z,15.66
2023-05-07T22:16:05.597Z,15.65
2023-05-07T22:21:06.881Z,15.60
2023-05-07T22:26:08.145Z,15.57
2023-05-07T22:31:09.376Z,15.52
2023-05-07T22:36:10.551Z,15.47
2023-05-07T22:41:11.695Z,15.44
2023-05-07T22:46:12.859Z,15.38
2023-05-07T22:51:14.525Z,15.37
2023-05-07T22:56:15.775Z,15.31
2023-05-07T23:01:17.010Z,15.30
2023-05-07T23:06:18.341Z,15.24
2023-05-07T23:11:19.502Z,15.28
2023-05-07T23:16:20.704Z,15.23
2023-05-07T23:21:21.902Z,15.16
2023-05-07T23:26:23.548Z,15.12
2023-05-07T23:31:24.793Z,15.11
2023-05-07T23:36:26.088Z,15.06
2023-05-07T23:41:27.284Z,15.03
2023-05-07T23:46:28.518Z,15.00
2023-05-07T23:51:29.755Z,14.99
2023-05-07T23:56:30.982Z,14.98
